Time;durP1;ratioP1;P1;durP2;ratioP2;P2;SDS_P1;SDS_P2;PMS_P1;PMS_P2;Temp;Humidity;BMP_temperature;BMP_pressure;BME280_temperature;BME280_humidity;BME280_pressure;Samples;Min_cycle;Max_cycle;Signal;HPM_P1;HPM_P2
2023/09/23 00:01:44;;;;;;;3.10;1.43;;;12.40;1.00;;;;;;4968744;28;20191;-74
2023/09/23 00:04:09;;;;;;;2.00;1.40;;;12.30;1.00;;;;;;4970106;28;20447;-74
2023/09/23 00:06:35;;;;;;;3.53;1.27;;;12.30;1.00;;;;;;4951932;28;20712;-73
2023/09/23 00:09:08;;;;;;;1.63;1.30;;;12.30;1.00;;;;;;4971108;28;20180;-74
2023/09/23 00:11:34;;;;;;;1.60;1.10;;;12.30;1.00;;;;;;4952093;28;20628;-73
2023/09/23 00:14:01;;;;;;;2.13;1.40;;;12.30;1.00;;;;;;4951754;28;21024;-74
2023/09/23 00:16:26;;;;;;;1.73;1.13;;;12.20;1.00;;;;;;4969569;28;20482;-75
2023/09/23 00:18:51;;;;;;;1.93;1.33;;;12.20;1.00;;;;;;4969271;28;20471;-74
2023/09/23 00:21:17;;;;;;;2.73;1.37;;;12.20;1.00;;;;;;4969961;28;20693;-74
2023/09/23 00:23:45;;;;;;;2.03;1.27;;;12.20;1.00;;;;;;4951423;28;20183;-73
2023/09/23 00:26:14;;;;;;;2.60;1.17;;;;;;;;;;4968550;28;20202;-74
2023/09/23 00:28:40;;;;;;;3.43;1.40;;;12.20;1.00;;;;;;4969785;28;20529;-74
2023/09/23 00:31:14;;;;;;;4.17;1.40;;;12.20;1.00;;;;;;4967308;28;20884;-74
2023/09/23 00:33:41;;;;;;;2.13;1.33;;;12.30;1.00;;;;;;4969304;28;20784;-74
2023/09/23 00:36:08;;;;;;;3.17;1.70;;;12.30;1.00;;;;;;4967505;28;20501;-74
2023/09/23 00:38:37;;;;;;;4.10;1.60;;;12.30;1.00;;;;;;4967517;28;20957;-74
2023/09/23 00:41:06;;;;;;;3.10;1.57;;;12.30;1.00;;;;;;4970547;28;20431;-74
2023/09/23 00:43:34;;;;;;;2.97;1.33;;;12.30;1.00;;;;;;4968048;28;20470;-75
2023/09/23 00:46:03;;;;;;;5.30;1.40;;;12.40;1.00;;;;;;4962671;28;20497;-74
2023/09/23 00:48:32;;;;;;;3.47;1.97;;;12.30;1.00;;;;;;4968299;28;20501;-74
2023/09/23 00:50:59;;;;;;;5.13;1.33;;;12.30;1.00;;;;;;4969228;28;20439;-74
2023/09/23 00:53:25;;;;;;;2.93;1.57;;;12.30;1.00;;;;;;4951838;28;20502;-74
2023/09/23 00:55:55;;;;;;;2.33;1.30;;;12.30;1.00;;;;;;4951909;28;20996;-74
2023/09/23 00:58:22;;;;;;;2.00;1.40;;;12.20;1.00;;;;;;4952763;28;21005;-74
2023/09/23 01:00:49;;;;;;;3.30;1.60;;;12.20;1.00;;;;;;4966183;28;20804;-75
2023/09/23 01:03:15;;;;;;;1.90;1.30;;;12.20;1.00;;;;;;4966521;28;20478;-74
2023/09/23 01:05:42;;;;;;;1.73;1.40;;;12.20;1.00;;;;;;4948297;28;20534;-74
2023/09/23 01:08:11;;;;;;;3.60;1.30;;;12.20;1.00;;;;;;4968126;28;20459;-74
2023/09/23 01:10:37;;;;;;;2.87;1.63;;;12.20;1.00;;;;;;4967295;28;20879;-74
2023/09/23 01:13:14;;;;;;;4.20;1.40;;;12.20;1.00;;;;;;4944372;28;20447;-74
2023/09/23 01:15:43;;;;;;;3.13;1.30;;;12.30;1.00;;;;;;4949462;28;20445;-74
2023/09/23 01:18:09;;;;;;;3.93;1.60;;;12.30;1.00;;;;;;4950244;28;20993;-74
2023/09/23 01:20:35;;;;;;;2.70;1.67;;;12.30;1.00;;;;;;4966038;28;20466;-74
2023/09/23 01:23:00;;;;;;;1.77;1.40;;;12.30;1.00;;;;;;4950347;28;20210;-74
2023/09/23 01:25:26;;;;;;;3.20;1.70;;;12.30;1.00;;;;;;4966970;28;20526;-74
2023/09/23 01:27:53;;;;;;;1.70;1.50;;;12.40;1.00;;;;;;4966252;28;20251;-74
2023/09/23 01:30:21;;;;;;;2.23;1.60;;;12.40;1.00;;;;;;4950526;28;20235;-74
2023/09/23 01:32:51;;;;;;;2.40;1.50;;;12.40;1.00;;;;;;4967881;28;20917;-75
2023/09/23 01:35:20;;;;;;;3.57;1.30;;;12.50;1.00;;;;;;4963486;28;20443;-74
2023/09/23 01:37:46;;;;;;;5.03;1.30;;;12.50;1.00;;;;;;4967768;28;20474;-74
2023/09/23 01:40:17;;;;;;;2.30;1.30;;;12.50;1.00;;;;;;4967489;28;20451;-74
2023/09/23 01:42:43;;;;;;;7.73;1.70;;;12.60;1.00;;;;;;4968416;28;20442;-74
2023/09/23 01:45:10;;;;;;;8.00;2.23;;;12.60;1.00;;;;;;4966652;28;20439;-74
2023/09/23 01:47:37;;;;;;;2.50;1.53;;;12.70;1.00;;;;;;4967589;28;21048;-74
2023/09/23 01:50:03;;;;;;;3.70;1.40;;;12.70;1.00;;;;;;4966863;28;20902;-74
2023/09/23 01:52:29;;;;;;;2.50;1.40;;;12.60;1.00;;;;;;4968140;28;20449;-74
2023/09/23 01:54:55;;;;;;;5.10;2.00;;;12.60;1.00;;;;;;4947605;28;20435;-74
2023/09/23 01:57:21;;;;;;;3.20;1.40;;;12.50;1.00;;;;;;4954225;28;20960;-74
2023/09/23 01:59:46;;;;;;;1.77;1.13;;;12.50;1.00;;;;;;4953557;28;20443;-74
2023/09/23 02:02:12;;;;;;;1.43;1.23;;;12.50;1.00;;;;;;4970665;28;20184;-74
2023/09/23 02:04:39;;;;;;;4.30;1.50;;;12.50;1.00;;;;;;4970353;28;20266;-74
2023/09/23 02:07:06;;;;;;;1.50;1.20;;;12.40;1.00;;;;;;4968973;28;20207;-74
2023/09/23 02:09:35;;;;;;;2.43;1.13;;;12.50;1.00;;;;;;4971454;28;20969;-75
2023/09/23 02:12:01;;;;;;;2.80;1.20;;;12.50;1.00;;;;;;4970376;28;20874;-74
2023/09/23 02:14:26;;;;;;;2.80;1.20;;;12.50;1.00;;;;;;4963912;28;20435;-74
2023/09/23 02:16:54;;;;;;;3.50;1.60;;;12.50;1.00;;;;;;4953718;28;20751;-74
2023/09/23 02:19:20;;;;;;;3.73;1.43;;;12.50;1.00;;;;;;4970974;28;20382;-74
2023/09/23 02:21:46;;;;;;;2.70;1.20;;;12.50;1.00;;;;;;4953192;28;20526;-73
2023/09/23 02:24:11;;;;;;;1.73;1.20;;;12.40;1.00;;;;;;4970658;28;20279;-74
2023/09/23 02:26:37;;;;;;;1.30;1.17;;;12.30;1.00;;;;;;4953428;28;20554;-74
2023/09/23 02:29:04;;;;;;;5.30;1.40;;;12.30;1.00;;;;;;4970280;28;20740;-74
2023/09/23 02:31:31;;;;;;;1.60;1.10;;;12.20;1.00;;;;;;4969979;28;20439;-74
2023/09/23 02:33:57;;;;;;;2.63;1.20;;;12.10;1.00;;;;;;4953617;28;20833;-73
2023/09/23 02:36:23;;;;;;;4.37;1.93;;;12.00;1.00;;;;;;4967401;28;20439;-74
2023/09/23 02:38:48;;;;;;;2.00;1.60;;;12.00;1.00;;;;;;4970500;28;20438;-74
2023/09/23 02:41:14;;;;;;;2.23;1.20;;;12.00;1.00;;;;;;4971203;28;20175;-74
2023/09/23 02:43:40;;;;;;;4.33;1.40;;;12.00;1.00;;;;;;4952244;28;20270;-74
2023/09/23 02:46:06;;;;;;;2.53;1.60;;;12.00;1.00;;;;;;4953595;28;20196;-75
2023/09/23 02:48:33;;;;;;;1.97;1.50;;;12.00;1.00;;;;;;4971162;28;20527;-75
2023/09/23 02:51:00;;;;;;;2.20;1.10;;;11.90;1.00;;;;;;4969597;28;20453;-75
2023/09/23 02:53:26;;;;;;;3.90;1.23;;;11.90;1.00;;;;;;4969786;28;20451;-74
2023/09/23 02:56:06;;;;;;;1.77;1.40;;;11.90;1.00;;;;;;4953132;28;20498;-74
2023/09/23 02:58:32;;;;;;;2.80;1.20;;;12.00;1.00;;;;;;4953196;28;20633;-74
2023/09/23 03:00:58;;;;;;;2.30;1.20;;;11.90;1.00;;;;;;4952392;28;20443;-74
2023/09/23 03:03:24;;;;;;;2.40;1.60;;;11.90;1.00;;;;;;4969982;28;20435;-74
2023/09/23 03:05:55;;;;;;;2.80;1.30;;;11.80;1.00;;;;;;4968290;28;20493;-73
2023/09/23 03:08:22;;;;;;;4.23;1.30;;;11.80;1.00;;;;;;4963801;28;20200;-74
2023/09/23 03:10:49;;;;;;;1.40;1.10;;;11.80;1.00;;;;;;4970599;28;20442;-74
2023/09/23 03:13:17;;;;;;;3.50;1.33;;;11.00;1.00;;;;;;4952815;28;20530;-74
2023/09/23 03:15:52;;;;;;;3.30;1.33;;;11.70;1.00;;;;;;4968908;28;20801;-74
2023/09/23 03:18:28;;;;;;;2.80;1.40;;;11.70;1.00;;;;;;4969660;28;20527;-73
2023/09/23 03:20:59;;;;;;;1.70;1.30;;;11.70;1.00;;;;;;4952343;28;21051;-74
2023/09/23 03:23:26;;;;;;;5.43;1.40;;;11.60;1.00;;;;;;4969013;28;20477;-74
2023/09/23 03:25:52;;;;;;;1.67;1.20;;;11.60;1.00;;;;;;4968320;28;20985;-74
2023/09/23 03:28:18;;;;;;;4.87;1.40;;;11.60;1.00;;;;;;4953171;28;21011;-75
2023/09/23 03:30:47;;;;;;;3.17;1.47;;;11.50;1.00;;;;;;4969511;28;20534;-74
2023/09/23 03:33:13;;;;;;;2.87;1.30;;;11.50;1.00;;;;;;4969588;28;20238;-74
2023/09/23 03:35:39;;;;;;;3.47;1.67;;;11.40;1.00;;;;;;4969012;28;20849;-74
2023/09/23 03:38:04;;;;;;;4.90;1.40;;;11.40;1.00;;;;;;4968726;28;20538;-74
2023/09/23 03:40:31;;;;;;;4.30;1.40;;;11.40;1.00;;;;;;4969589;28;20194;-74
2023/09/23 03:42:58;;;;;;;3.20;1.30;;;11.40;1.00;;;;;;4967948;28;20647;-74
2023/09/23 03:45:23;;;;;;;2.73;1.50;;;11.30;1.00;;;;;;4968583;28;20435;-75
2023/09/23 03:47:49;;;;;;;2.90;1.30;;;11.30;1.00;;;;;;4968907;28;21004;-74
2023/09/23 03:50:15;;;;;;;2.47;1.40;;;11.20;1.00;;;;;;4968717;28;20184;-74
2023/09/23 03:52:42;;;;;;;2.27;1.50;;;11.20;1.00;;;;;;4951956;28;20447;-75
2023/09/23 03:55:09;;;;;;;3.30;1.50;;;11.20;1.00;;;;;;4968311;28;20513;-74
2023/09/23 03:57:35;;;;;;;6.43;1.50;;;11.30;1.00;;;;;;4969589;28;20538;-75
2023/09/23 04:00:01;;;;;;;4.30;1.70;;;11.10;1.00;;;;;;4950390;28;20486;-74
2023/09/23 04:02:27;;;;;;;2.10;1.50;;;11.20;1.00;;;;;;4951854;28;20179;-74
2023/09/23 04:04:53;;;;;;;1.80;1.30;;;11.10;1.00;;;;;;4969525;28;20443;-74
2023/09/23 04:07:20;;;;;;;2.37;1.40;;;11.10;1.00;;;;;;4966964;28;20199;-74
2023/09/23 04:09:46;;;;;;;2.43;1.40;;;11.10;1.00;;;;;;4950653;28;20443;-73
2023/09/23 04:12:13;;;;;;;5.83;1.60;;;11.10;1.00;;;;;;4951282;28;20510;-74
2023/09/23 04:14:38;;;;;;;1.80;1.40;;;11.20;1.00;;;;;;4968623;28;20475;-74
2023/09/23 04:17:04;;;;;;;2.13;1.40;;;11.20;1.00;;;;;;4968852;28;20584;-74
2023/09/23 04:19:30;;;;;;;2.70;1.30;;;11.20;1.00;;;;;;4949784;28;20183;-73
2023/09/23 04:21:56;;;;;;;3.60;1.50;;;11.20;1.00;;;;;;4951479;28;20445;-73
2023/09/23 04:24:22;;;;;;;2.73;1.60;;;11.20;1.00;;;;;;4965682;28;20187;-73
2023/09/23 04:26:47;;;;;;;5.90;1.30;;;11.20;1.00;;;;;;4947740;28;20455;-74
2023/09/23 04:29:14;;;;;;;2.60;1.60;;;11.20;1.00;;;;;;4946875;28;20180;-75
2023/09/23 04:31:39;;;;;;;2.30;1.60;;;11.30;1.00;;;;;;4951799;28;20655;-74
2023/09/23 04:34:05;;;;;;;2.00;1.60;;;11.30;1.00;;;;;;4951599;28;20442;-74
2023/09/23 04:36:31;;;;;;;2.03;1.60;;;11.20;1.00;;;;;;4966934;28;20278;-74
2023/09/23 04:38:56;;;;;;;2.63;1.40;;;11.20;1.00;;;;;;4968191;28;20187;-74
2023/09/23 04:41:22;;;;;;;2.90;1.43;;;11.20;1.00;;;;;;4951568;28;20183;-74
2023/09/23 04:43:47;;;;;;;1.90;1.50;;;11.60;1.00;;;;;;4967312;28;20218;-74
2023/09/23 04:46:14;;;;;;;2.60;1.80;;;11.20;1.00;;;;;;4968328;28;20207;-75
2023/09/23 04:48:41;;;;;;;3.43;2.03;;;11.10;1.00;;;;;;4968583;28;20346;-75
2023/09/23 04:51:08;;;;;;;3.03;2.47;;;11.20;1.00;;;;;;4951756;28;20431;-74
2023/09/23 04:53:34;;;;;;;4.77;3.30;;;11.20;1.00;;;;;;4951358;28;20439;-74
2023/09/23 04:56:07;;;;;;;4.37;2.70;;;11.20;1.00;;;;;;4968174;28;20439;-74
2023/09/23 04:58:33;;;;;;;4.73;2.37;;;11.10;1.00;;;;;;4952066;28;20463;-74
2023/09/23 05:00:59;;;;;;;3.33;2.40;;;11.10;1.00;;;;;;4950940;28;20458;-74
2023/09/23 05:03:25;;;;;;;5.00;2.00;;;11.10;1.00;;;;;;4968501;28;20196;-74
2023/09/23 05:05:50;;;;;;;2.97;1.90;;;11.10;1.00;;;;;;4950182;28;20818;-74
2023/09/23 05:08:16;;;;;;;4.77;2.10;;;11.10;1.00;;;;;;4951052;28;20472;-74
2023/09/23 05:10:41;;;;;;;8.20;2.40;;;11.10;1.00;;;;;;4968467;28;20219;-74
2023/09/23 05:13:11;;;;;;;6.60;4.23;;;11.10;1.00;;;;;;4967715;28;20192;-74
2023/09/23 05:15:37;;;;;;;8.53;4.07;;;11.10;1.00;;;;;;4967468;28;20777;-74
2023/09/23 05:18:03;;;;;;;5.00;3.00;;;11.10;1.00;;;;;;4951352;28;20481;-74
2023/09/23 05:20:31;;;;;;;6.60;4.03;;;11.10;1.00;;;;;;4968141;28;20949;-73
2023/09/23 05:22:56;;;;;;;7.30;2.90;;;11.10;1.00;;;;;;4951991;28;20184;-74
2023/09/23 05:25:25;;;;;;;2.47;2.07;;;11.10;1.00;;;;;;4950833;28;20438;-74
2023/09/23 05:27:54;;;;;;;5.00;2.03;;;11.10;1.00;;;;;;4950105;28;20714;-74
2023/09/23 05:30:21;;;;;;;4.03;1.93;;;11.10;1.00;;;;;;4968733;28;20437;-74
2023/09/23 05:32:47;;;;;;;2.80;1.60;;;11.10;1.00;;;;;;4971798;28;20434;-74
2023/09/23 05:35:13;;;;;;;7.00;2.50;;;11.10;1.00;;;;;;4968113;28;20482;-74
2023/09/23 05:37:40;;;;;;;2.43;1.80;;;11.20;1.00;;;;;;4955029;28;20204;-74
2023/09/23 05:40:26;;;;;;;2.80;1.50;;;11.20;1.00;;;;;;4954840;28;20473;-75
2023/09/23 05:42:52;;;;;;;3.00;1.37;;;11.30;1.00;;;;;;4968775;28;20446;-74
2023/09/23 05:45:19;;;;;;;5.17;2.03;;;11.40;1.00;;;;;;4953487;28;20439;-74
2023/09/23 05:47:45;;;;;;;4.40;1.70;;;11.50;1.00;;;;;;4955469;28;20946;-74
2023/09/23 05:50:11;;;;;;;6.70;2.33;;;11.70;1.00;;;;;;4995294;23;20469;-76
2023/09/23 05:52:36;;;;;;;3.00;1.60;;;11.70;1.00;;;;;;4970089;28;20470;-75
2023/09/23 05:55:04;;;;;;;3.50;1.93;;;11.80;1.00;;;;;;4954527;28;20180;-76
2023/09/23 05:57:30;;;;;;;2.70;2.07;;;11.90;1.00;;;;;;4969682;28;20183;-74
2023/09/23 05:59:55;;;;;;;2.60;2.10;;;12.00;1.00;;;;;;4955009;28;20956;-75
2023/09/23 06:02:21;;;;;;;2.77;1.67;;;12.10;1.00;;;;;;4952975;28;20526;-74
2023/09/23 06:04:47;;;;;;;3.00;2.00;;;12.10;1.00;;;;;;4970587;28;20191;-74
2023/09/23 06:07:13;;;;;;;3.67;2.10;;;12.20;1.00;;;;;;4971029;28;20203;-74
2023/09/23 06:09:43;;;;;;;6.83;2.20;;;12.20;1.00;;;;;;4971199;28;20447;-75
2023/09/23 06:12:09;;;;;;;2.90;2.60;;;12.30;1.00;;;;;;4971964;28;20204;-72
2023/09/23 06:14:34;;;;;;;4.43;2.43;;;12.40;1.00;;;;;;4971948;28;20446;-73
2023/09/23 06:17:00;;;;;;;2.83;1.70;;;12.80;1.00;;;;;;4971793;28;20730;-74
2023/09/23 06:19:25;;;;;;;3.10;1.90;;;13.20;1.00;;;;;;4971166;28;22838;-71
2023/09/23 06:21:51;;;;;;;1.73;1.50;;;13.60;1.00;;;;;;4970735;28;20303;-73
2023/09/23 06:24:17;;;;;;;3.80;1.60;;;13.70;1.00;;;;;;4966569;28;20190;-73
2023/09/23 06:26:42;;;;;;;2.20;1.37;;;13.70;1.00;;;;;;4971109;28;20681;-74
2023/09/23 06:29:09;;;;;;;3.20;1.60;;;13.70;1.00;;;;;;4970599;28;20180;-71
2023/09/23 06:31:34;;;;;;;2.13;1.53;;;13.50;1.00;;;;;;4971344;28;20254;-74
2023/09/23 06:34:00;;;;;;;3.07;1.80;;;13.40;1.00;;;;;;4971142;28;20695;-75
2023/09/23 06:36:26;;;;;;;2.27;1.40;;;13.40;1.00;;;;;;4968409;28;20180;-73
2023/09/23 06:38:51;;;;;;;1.87;1.53;;;13.70;1.00;;;;;;4971369;28;20689;-73
2023/09/23 06:41:17;;;;;;;3.73;1.50;;;14.50;1.00;;;;;;4970373;28;20215;-76
2023/09/23 06:43:43;;;;;;;2.60;1.60;;;14.70;1.00;;;;;;4972387;28;20639;-75
2023/09/23 06:46:08;;;;;;;3.27;1.53;;;14.40;1.00;;;;;;4952160;28;20211;-74
2023/09/23 06:48:34;;;;;;;4.57;1.80;;;14.30;1.00;;;;;;4968209;28;20180;-74
2023/09/23 06:51:01;;;;;;;6.67;1.60;;;14.30;1.00;;;;;;4970773;28;20342;-75
2023/09/23 06:53:28;;;;;;;8.37;1.67;;;14.30;1.00;;;;;;4972212;28;20672;-76
2023/09/23 06:55:54;;;;;;;3.20;1.70;;;14.20;1.00;;;;;;4972955;28;20439;-74
2023/09/23 06:58:20;;;;;;;2.67;1.50;;;14.10;1.00;;;;;;4970192;28;20422;-76
2023/09/23 07:00:45;;;;;;;2.85;1.80;;;14.20;1.00;;;;;;4965810;28;20418;-72
2023/09/23 07:03:11;;;;;;;3.00;1.47;;;14.20;1.00;;;;;;4968961;28;20773;-74
2023/09/23 07:05:37;;;;;;;4.80;1.50;;;14.20;1.00;;;;;;4969159;28;20180;-75
2023/09/23 07:08:03;;;;;;;2.53;1.47;;;14.10;1.00;;;;;;4970018;28;20239;-73
2023/09/23 07:10:32;;;;;;;1.90;1.20;;;13.90;1.00;;;;;;4969235;28;20451;-72
2023/09/23 07:12:58;;;;;;;2.30;1.40;;;13.90;1.00;;;;;;4969152;28;20474;-71
2023/09/23 07:15:23;;;;;;;1.83;1.33;;;14.00;1.00;;;;;;4970516;28;20455;-73
2023/09/23 07:17:49;;;;;;;3.43;1.47;;;14.00;1.00;;;;;;4970863;28;20184;-72
2023/09/23 07:20:15;;;;;;;2.27;1.50;;;14.20;1.00;;;;;;4960259;28;20674;-75
2023/09/23 07:22:40;;;;;;;5.33;1.50;;;14.20;1.00;;;;;;4971291;28;20186;-72
2023/09/23 07:25:06;;;;;;;4.00;1.50;;;14.20;1.00;;;;;;4971077;28;20594;-72
2023/09/23 07:27:32;;;;;;;2.90;1.50;;;14.30;1.00;;;;;;4970120;28;20696;-72
2023/09/23 07:29:57;;;;;;;3.50;1.70;;;14.30;1.00;;;;;;4970450;28;20215;-74
2023/09/23 07:32:23;;;;;;;4.23;1.80;;;14.30;1.00;;;;;;4970651;28;20207;-75
2023/09/23 07:34:48;;;;;;;4.70;2.37;;;14.40;1.00;;;;;;4970599;28;20203;-72
2023/09/23 07:37:14;;;;;;;2.73;1.40;;;14.40;1.00;;;;;;4971059;28;20188;-75
2023/09/23 07:39:40;;;;;;;6.37;1.40;;;14.40;1.00;;;;;;4970305;28;20195;-77
2023/09/23 07:42:06;;;;;;;1.73;1.50;;;14.40;1.00;;;;;;4949419;28;20216;-75
2023/09/23 07:44:31;;;;;;;3.60;1.53;;;14.40;1.00;;;;;;4968998;28;20455;-72
2023/09/23 07:46:57;;;;;;;3.93;1.40;;;14.50;1.00;;;;;;4970027;28;20212;-72
2023/09/23 07:49:22;;;;;;;1.70;1.40;;;14.50;1.00;;;;;;4970947;28;20188;-72
2023/09/23 07:51:48;;;;;;;2.13;1.40;;;14.60;1.00;;;;;;4968798;28;20581;-75
2023/09/23 07:54:14;;;;;;;2.57;1.40;;;14.60;1.00;;;;;;4969953;28;20646;-74
2023/09/23 07:56:40;;;;;;;2.27;1.40;;;14.60;1.00;;;;;;4968789;28;20335;-75
2023/09/23 07:59:06;;;;;;;4.13;1.50;;;14.70;1.00;;;;;;4969412;28;20514;-73
2023/09/23 08:01:31;;;;;;;2.83;1.60;;;14.70;1.00;;;;;;4968085;28;20353;-72
2023/09/23 08:03:57;;;;;;;2.37;1.47;;;14.80;1.00;;;;;;4967812;28;20188;-73
2023/09/23 08:06:23;;;;;;;3.57;1.77;;;14.90;1.00;;;;;;4967268;28;20214;-72
2023/09/23 08:08:48;;;;;;;2.40;1.37;;;15.10;1.00;;;;;;4969964;28;20263;-72
2023/09/23 08:11:14;;;;;;;3.60;1.70;;;15.20;1.00;;;;;;4970555;28;20200;-72
2023/09/23 08:13:40;;;;;;;3.27;1.60;;;15.30;1.00;;;;;;4970483;28;20199;-72
2023/09/23 08:16:05;;;;;;;3.60;1.60;;;15.40;1.00;;;;;;4969868;28;20642;-72
2023/09/23 08:18:31;;;;;;;7.10;2.53;;;15.40;1.00;;;;;;4970639;28;20737;-72
2023/09/23 08:21:00;;;;;;;1.47;1.37;;;15.60;1.00;;;;;;4970502;28;20207;-74
2023/09/23 08:23:26;;;;;;;8.93;2.03;;;15.80;1.00;;;;;;4969878;28;20532;-73
2023/09/23 08:25:54;;;;;;;2.60;1.47;;;15.80;1.00;;;;;;4971802;28;20458;-72
2023/09/23 08:28:19;;;;;;;7.47;1.50;;;15.80;1.00;;;;;;4973582;28;20455;-73
2023/09/23 08:30:46;;;;;;;2.20;1.40;;;16.10;1.00;;;;;;4970346;28;20988;-72
2023/09/23 08:33:12;;;;;;;3.67;1.50;;;16.10;1.00;;;;;;4970732;28;20175;-75
2023/09/23 08:35:38;;;;;;;1.80;1.40;;;16.30;1.00;;;;;;4949776;28;20473;-72
2023/09/23 08:38:04;;;;;;;4.97;1.70;;;16.40;1.00;;;;;;4970792;28;20179;-71
2023/09/23 08:40:34;;;;;;;2.27;1.33;;;17.30;1.00;;;;;;4970101;28;20538;-72
2023/09/23 08:43:05;;;;;;;5.73;1.53;;;16.80;1.00;;;;;;4967023;28;20538;-72
2023/09/23 08:45:31;;;;;;;3.77;1.40;;;17.10;1.00;;;;;;4969215;28;20438;-74
2023/09/23 08:47:57;;;;;;;2.03;1.30;;;17.20;1.00;;;;;;4970023;28;20513;-72
2023/09/23 08:50:25;;;;;;;3.67;1.50;;;17.30;1.00;;;;;;4968376;28;20487;-74
2023/09/23 08:52:52;;;;;;;4.00;1.30;;;17.40;1.00;;;;;;4970386;28;20519;-72
2023/09/23 08:55:19;;;;;;;3.17;1.50;;;17.30;1.00;;;;;;4969445;28;20489;-74
2023/09/23 08:57:45;;;;;;;3.03;1.50;;;17.30;1.00;;;;;;4969328;28;20446;-74
2023/09/23 09:00:13;;;;;;;2.87;1.60;;;17.80;1.00;;;;;;4969745;28;20430;-74
2023/09/23 09:02:39;;;;;;;3.80;1.60;;;17.80;1.00;;;;;;4969920;28;20494;-74
2023/09/23 09:05:04;;;;;;;5.13;1.60;;;17.90;1.00;;;;;;4970975;28;20842;-73
2023/09/23 09:07:38;;;;;;;2.87;1.97;;;18.20;1.00;;;;;;4973156;28;20207;-73
2023/09/23 09:10:04;;;;;;;2.53;1.50;;;18.80;1.00;;;;;;4973641;28;20680;-74
2023/09/23 09:12:33;;;;;;;4.20;1.60;;;18.80;1.00;;;;;;4973402;28;20423;-73
2023/09/23 09:14:59;;;;;;;4.03;1.67;;;19.00;1.00;;;;;;4973408;28;20794;-74
2023/09/23 09:17:25;;;;;;;3.43;1.80;;;18.90;1.00;;;;;;4973246;28;20969;-72
2023/09/23 09:19:51;;;;;;;3.30;1.60;;;18.90;1.00;;;;;;4973660;28;20526;-74
2023/09/23 09:22:19;;;;;;;3.00;1.40;;;19.00;1.00;;;;;;4973693;28;20239;-76
2023/09/23 09:24:46;;;;;;;5.03;1.70;;;18.90;1.00;;;;;;4972467;28;20264;-73
2023/09/23 09:27:14;;;;;;;3.93;1.80;;;18.80;1.00;;;;;;4973519;28;20606;-74
2023/09/23 09:29:43;;;;;;;6.50;1.40;;;18.80;1.00;;;;;;4972908;28;20435;-75
2023/09/23 09:32:12;;;;;;;5.80;1.60;;;18.90;1.00;;;;;;4973609;28;21040;-75
2023/09/23 09:34:45;;;;;;;3.10;1.43;;;19.20;1.00;;;;;;4969488;28;20428;-72
2023/09/23 09:37:13;;;;;;;3.70;1.77;;;19.10;1.00;;;;;;4964348;28;20461;-74
2023/09/23 09:39:49;;;;;;;5.37;1.43;;;19.40;1.00;;;;;;4969621;28;20921;-78
2023/09/23 09:42:30;;;;;;;3.90;1.43;;;19.90;1.00;;;;;;4969498;28;20467;-77
2023/09/23 09:44:56;;;;;;;3.83;2.00;;;20.00;1.00;;;;;;4968670;28;20517;-72
2023/09/23 09:47:23;;;;;;;2.70;1.40;;;20.10;1.00;;;;;;4969699;28;20462;-72
2023/09/23 09:49:54;;;;;;;3.80;1.47;;;20.30;1.00;;;;;;4968156;28;20438;-73
2023/09/23 09:52:22;;;;;;;3.10;1.30;;;20.60;1.00;;;;;;4968396;28;20466;-75
2023/09/23 09:54:57;;;;;;;3.70;1.37;;;20.90;1.00;;;;;;4964392;28;20439;-72
2023/09/23 09:57:26;;;;;;;2.90;1.30;;;20.70;1.00;;;;;;4968021;28;20443;-73
2023/09/23 09:59:59;;;;;;;3.57;1.60;;;20.80;1.00;;;;;;4971188;28;20438;-72
2023/09/23 10:02:24;;;;;;;4.30;1.60;;;21.10;1.00;;;;;;4971217;28;20481;-74
2023/09/23 10:04:51;;;;;;;4.20;1.53;;;21.30;1.00;;;;;;4970207;28;20467;-73
2023/09/23 10:07:17;;;;;;;3.47;1.30;;;21.60;1.00;;;;;;4969414;28;20757;-72
2023/09/23 10:09:53;;;;;;;4.90;1.57;;;21.90;1.00;;;;;;4952026;28;20526;-74
2023/09/23 10:12:29;;;;;;;7.20;1.50;;;22.10;1.00;;;;;;4968731;28;20465;-73
2023/09/23 10:14:56;;;;;;;3.70;1.63;;;22.50;1.00;;;;;;4966988;28;20438;-76
2023/09/23 10:17:30;;;;;;;5.10;1.80;;;23.10;1.00;;;;;;4968405;28;20517;-74
2023/09/23 10:19:56;;;;;;;3.80;1.47;;;23.90;1.00;;;;;;4971219;28;20433;-73
2023/09/23 10:22:23;;;;;;;6.13;1.63;;;25.00;1.00;;;;;;4969894;28;20470;-73
2023/09/23 10:25:04;;;;;;;3.57;1.50;;;25.90;1.00;;;;;;4968359;28;20238;-78
2023/09/23 10:27:30;;;;;;;3.40;1.50;;;26.80;1.00;;;;;;4966620;28;21579;-73
2023/09/23 10:29:56;;;;;;;3.60;1.33;;;28.10;1.00;;;;;;4967487;28;20952;-73
2023/09/23 10:32:21;;;;;;;3.43;1.43;;;29.10;1.00;;;;;;4968013;28;20218;-75
2023/09/23 10:34:49;;;;;;;3.20;1.40;;;29.20;1.00;;;;;;4950380;28;20187;-73
2023/09/23 10:37:30;;;;;;;3.93;1.40;;;29.80;1.00;;;;;;4968197;28;20234;-73
2023/09/23 10:40:02;;;;;;;3.70;1.40;;;31.20;1.00;;;;;;4968295;28;20179;-73
2023/09/23 10:42:31;;;;;;;3.22;1.60;;;32.00;1.00;;;;;;4947366;28;20714;-73
2023/09/23 10:44:59;;;;;;;4.47;1.30;;;31.00;1.00;;;;;;4967868;28;20190;-72
2023/09/23 10:47:25;;;;;;;3.80;1.48;;;30.60;1.00;;;;;;4968813;28;20207;-76
2023/09/23 10:49:50;;;;;;;3.42;1.70;;;30.00;1.00;;;;;;4968619;28;20190;-73
2023/09/23 10:52:17;;;;;;;4.25;1.30;;;29.30;1.00;;;;;;4967081;28;20222;-72
2023/09/23 10:54:42;;;;;;;3.22;1.50;;;30.20;1.00;;;;;;4968483;28;20194;-73
2023/09/23 10:57:08;;;;;;;2.63;1.35;;;29.70;1.00;;;;;;4970453;28;20191;-72
2023/09/23 10:59:34;;;;;;;3.25;1.40;;;28.20;1.00;;;;;;4969846;28;20193;-80
2023/09/23 11:02:00;;;;;;;6.23;1.60;;;28.60;1.00;;;;;;4966723;28;20203;-72
2023/09/23 11:04:25;;;;;;;5.90;1.50;;;30.50;1.00;;;;;;4970264;28;20611;-73
2023/09/23 11:06:51;;;;;;;5.07;1.63;;;31.90;1.00;;;;;;4968386;28;20305;-75
2023/09/23 11:09:20;;;;;;;4.43;1.60;;;32.50;1.00;;;;;;4972268;28;20188;-74
2023/09/23 11:11:46;;;;;;;4.13;1.50;;;33.50;1.00;;;;;;4968505;28;20227;-73
2023/09/23 11:14:15;;;;;;;3.35;1.42;;;34.00;1.00;;;;;;4950286;28;20534;-75
2023/09/23 11:16:42;;;;;;;4.43;1.40;;;34.30;1.00;;;;;;4967294;28;20202;-77
2023/09/23 11:19:08;;;;;;;3.10;1.40;;;34.10;1.00;;;;;;4966094;28;20183;-74
2023/09/23 11:21:46;;;;;;;4.18;1.55;;;34.60;1.00;;;;;;4967218;28;20256;-76
2023/09/23 11:24:12;;;;;;;3.05;1.40;;;34.00;1.00;;;;;;4964252;28;20204;-77
2023/09/23 11:26:41;;;;;;;4.57;1.42;;;32.60;1.00;;;;;;4967682;28;20210;-74
2023/09/23 11:29:07;;;;;;;2.78;1.50;;;32.80;1.00;;;;;;4968164;28;20190;-78
2023/09/23 11:31:33;;;;;;;6.63;1.55;;;33.70;1.00;;;;;;4968550;28;20203;-73
2023/09/23 11:33:59;;;;;;;3.88;1.70;;;33.60;1.00;;;;;;4969456;28;20197;-75
2023/09/23 11:36:24;;;;;;;3.35;1.40;;;32.40;1.00;;;;;;4965678;28;20653;-76
2023/09/23 11:38:50;;;;;;;2.38;1.25;;;31.40;1.00;;;;;;4969281;28;20187;-75
2023/09/23 11:41:16;;;;;;;4.82;1.70;;;31.70;1.00;;;;;;4968586;28;20253;-75
2023/09/23 11:43:41;;;;;;;6.95;1.48;;;32.40;1.00;;;;;;4966282;28;20195;-74
2023/09/23 11:46:07;;;;;;;7.05;1.70;;;33.20;1.00;;;;;;4970616;28;20677;-74
2023/09/23 11:48:35;;;;;;;3.58;1.40;;;33.90;1.00;;;;;;4970901;28;20199;-74
2023/09/23 11:51:01;;;;;;;3.65;1.52;;;34.20;1.00;;;;;;4972366;28;20238;-75
2023/09/23 11:53:26;;;;;;;2.80;1.50;;;34.60;1.00;;;;;;4971311;28;20209;-74
2023/09/23 11:55:52;;;;;;;3.78;1.35;;;34.60;1.00;;;;;;4970079;28;20218;-75
2023/09/23 11:58:19;;;;;;;3.72;1.52;;;34.50;1.00;;;;;;4971350;28;20187;-76
2023/09/23 12:00:47;;;;;;;3.90;1.70;;;33.40;1.00;;;;;;4970562;28;20203;-74
2023/09/23 12:03:14;;;;;;;3.78;1.48;;;33.70;1.00;;;;;;4971336;28;20183;-74
2023/09/23 12:05:41;;;;;;;2.50;1.40;;;34.00;1.00;;;;;;4970152;28;20218;-77
2023/09/23 12:08:09;;;;;;;4.75;1.30;;;34.70;1.00;;;;;;4971147;28;20312;-75
2023/09/23 12:10:35;;;;;;;5.05;1.50;;;32.60;1.00;;;;;;4971009;28;20222;-75
2023/09/23 12:13:05;;;;;;;4.43;1.42;;;31.60;1.00;;;;;;4965049;28;20176;-75
2023/09/23 12:15:31;;;;;;;3.75;1.25;;;28.60;1.00;;;;;;4969688;28;20661;-78
2023/09/23 12:17:57;;;;;;;3.63;1.55;;;27.00;1.00;;;;;;4970010;28;20558;-75
2023/09/23 12:20:23;;;;;;;3.50;1.60;;;25.90;1.00;;;;;;4970398;28;20218;-75
2023/09/23 12:22:52;;;;;;;2.90;1.50;;;25.60;1.00;;;;;;4969902;28;20266;-74
2023/09/23 12:25:18;;;;;;;5.80;1.77;;;26.30;1.00;;;;;;4970342;28;20179;-75
2023/09/23 12:27:44;;;;;;;4.83;1.50;;;26.80;1.00;;;;;;4969753;28;20354;-74
2023/09/23 12:30:10;;;;;;;3.43;1.60;;;28.30;1.00;;;;;;4969718;28;20186;-75
2023/09/23 12:32:35;;;;;;;3.67;1.57;;;28.30;1.00;;;;;;4970235;28;20334;-75
2023/09/23 12:35:01;;;;;;;3.63;1.50;;;29.00;1.00;;;;;;4965072;28;20322;-75
2023/09/23 12:37:27;;;;;;;3.40;1.30;;;30.10;1.00;;;;;;4970244;28;20191;-74
2023/09/23 12:39:55;;;;;;;3.60;1.63;;;30.50;1.00;;;;;;4968761;28;20277;-75
2023/09/23 12:42:21;;;;;;;3.90;1.40;;;29.50;1.00;;;;;;4969813;28;20199;-76
2023/09/23 12:44:47;;;;;;;3.37;1.47;;;28.30;1.00;;;;;;4969388;28;20488;-76
2023/09/23 12:47:12;;;;;;;4.77;1.40;;;26.90;1.00;;;;;;4970028;28;20207;-75
2023/09/23 12:49:39;;;;;;;3.40;1.60;;;25.80;1.00;;;;;;4970268;28;20187;-75
2023/09/23 12:52:06;;;;;;;4.03;1.70;;;25.50;1.00;;;;;;4969420;28;20303;-74
2023/09/23 12:54:31;;;;;;;3.53;1.40;;;25.70;1.00;;;;;;4969912;28;20438;-77
2023/09/23 12:56:57;;;;;;;2.77;1.23;;;27.00;1.00;;;;;;4964398;28;20446;-74